KMKG/MKG METAR and TAF weather

Enter ICAO airport designator
Station Type Date Time Source
KMKG METAR 2020/09/27 02:55 UTC NOAA

KMKG 270255Z 18020G37KT 10SM SCT180 23/14 A2965 RMK AO2 PK WND 18038/0212 SLP038 LAST T02330144 56007


Station Type Date Time Source
KMKG Decoded METAR 2020/09/27 02:55 UTC NOAA

MUSKEGON COUNTY AIRPORT, MI, United States (KMKG) 43-10N 086-14W 191M
Sep 26, 2020 - 10:55 PM EDT / 2020.09.27 0255 UTC
Wind: from the S (180 degrees) at 23 MPH (20 KT) gusting to 43 MPH (37 KT):0
Visibility: 10 mile(s):0
Sky conditions: partly cloudy
Temperature: 73.9 F (23.3 C)
Dew Point: 57.9 F (14.4 C)
Relative Humidity: 57%
Pressure (altimeter): 29.65 in. Hg (1004 hPa)
Pressure tendency: 0.02 inches (0.7 hPa) lower than three hours ago
ob: KMKG 270255Z 18020G37KT 10SM SCT180 23/14 A2965 RMK AO2 PK WND 18038/0212 SLP038 LAST T02330144 56007
cycle: 3

Station Type Date Time Source
KMKG TAF 2020/09/26 23:04 UTC NOAA

TAF
AMD KMKG 262302Z 2623/2718 18010KT P6SM SCT012
FM270200 19012G20KT P6SM SCT200 WS020/21045KT
FM271000 21015G25KT P6SM BKN090

Example: see airport list